createdAt,value
2024-01-05T00:00:48.040Z,2.20
2024-01-05T00:03:15.695Z,2.55
2024-01-05T00:05:43.355Z,2.08
2024-01-05T00:08:11.475Z,2.00
2024-01-05T00:10:39.281Z,2.35
2024-01-05T00:13:07.741Z,2.10
2024-01-05T00:15:35.606Z,2.50
2024-01-05T00:18:16.638Z,2.85
2024-01-05T00:20:44.600Z,2.58
2024-01-05T00:23:12.184Z,2.60
2024-01-05T00:25:40.006Z,3.75
2024-01-05T00:28:07.769Z,4.82
2024-01-05T00:30:36.687Z,4.57
2024-01-05T00:33:04.842Z,4.07
2024-01-05T00:35:32.709Z,4.32
2024-01-05T00:38:00.636Z,4.18
2024-01-05T00:40:28.298Z,3.40
2024-01-05T00:42:55.869Z,3.30
2024-01-05T00:45:23.341Z,3.40
2024-01-05T00:47:55.396Z,3.30
2024-01-05T00:50:23.234Z,3.60
2024-01-05T00:52:50.904Z,3.40
2024-01-05T00:55:18.512Z,2.70
2024-01-05T00:57:46.124Z,2.88
2024-01-05T01:00:14.786Z,2.72
2024-01-05T01:02:43.297Z,2.92
2024-01-05T01:05:10.983Z,2.90
2024-01-05T01:07:41.104Z,3.00
2024-01-05T01:10:09.004Z,2.80
2024-01-05T01:12:36.833Z,3.05
2024-01-05T01:15:05.566Z,3.30
2024-01-05T01:17:34.855Z,2.90
2024-01-05T01:20:02.466Z,3.67
2024-01-05T01:22:33.552Z,3.58
2024-01-05T01:25:01.050Z,3.92
2024-01-05T01:27:29.154Z,3.92
2024-01-05T01:29:56.613Z,3.53
2024-01-05T01:32:24.335Z,4.15
2024-01-05T01:34:51.815Z,3.53
2024-01-05T01:37:19.520Z,4.15
2024-01-05T01:39:47.143Z,3.80
2024-01-05T01:42:14.761Z,3.58
2024-01-05T01:44:42.803Z,3.92
2024-01-05T01:47:10.797Z,5.13
2024-01-05T01:49:38.665Z,5.75
2024-01-05T01:52:08.340Z,6.47
2024-01-05T01:54:36.712Z,7.18
2024-01-05T01:57:06.229Z,6.57
2024-01-05T01:59:34.457Z,6.65
2024-01-05T02:02:02.374Z,6.97
2024-01-05T02:04:31.119Z,6.93
2024-01-05T02:06:58.836Z,7.00
2024-01-05T02:09:26.744Z,7.07
2024-01-05T02:11:54.469Z,6.13
2024-01-05T02:14:22.145Z,5.82
2024-01-05T02:17:29.154Z,6.40
2024-01-05T02:19:57.549Z,6.93
2024-01-05T02:22:29.720Z,5.15
2024-01-05T02:25:00.730Z,4.90
2024-01-05T02:27:28.665Z,4.72
2024-01-05T02:29:56.422Z,4.00
2024-01-05T02:32:24.162Z,4.20
2024-01-05T02:34:51.673Z,4.32
2024-01-05T02:37:19.407Z,4.60
2024-01-05T02:39:46.888Z,5.25
2024-01-05T02:42:14.343Z,6.75
2024-01-05T02:44:41.864Z,6.97
2024-01-05T02:47:09.566Z,6.13
2024-01-05T02:49:37.421Z,5.18
2024-01-05T02:52:05.767Z,6.25
2024-01-05T02:54:33.341Z,7.82
2024-01-05T02:57:01.030Z,6.65
2024-01-05T02:59:28.704Z,5.80
2024-01-05T03:01:56.489Z,7.53
2024-01-05T03:04:24.391Z,5.50
2024-01-05T03:06:51.900Z,5.03
2024-01-05T03:09:19.396Z,3.10
2024-01-05T03:11:48.260Z,3.40
2024-01-05T03:14:17.039Z,3.35
2024-01-05T03:16:45.530Z,4.00
2024-01-05T03:19:13.284Z,4.50
2024-01-05T03:21:40.917Z,3.78
2024-01-05T03:24:08.690Z,4.40
2024-01-05T03:26:36.685Z,3.97
2024-01-05T03:29:04.182Z,4.03
2024-01-05T03:31:31.835Z,5.30
2024-01-05T03:33:59.909Z,4.38
2024-01-05T03:36:27.454Z,3.78
2024-01-05T03:38:55.973Z,3.85
2024-01-05T03:41:23.419Z,3.90
2024-01-05T03:43:51.010Z,4.07
2024-01-05T03:46:18.538Z,4.25
2024-01-05T03:48:46.292Z,4.55
2024-01-05T03:51:14.072Z,5.10
2024-01-05T03:53:41.912Z,4.13
2024-01-05T03:56:12.369Z,4.78
2024-01-05T03:58:40.057Z,4.75
2024-01-05T04:01:07.684Z,4.88
2024-01-05T04:03:35.471Z,6.28
2024-01-05T04:06:05.130Z,5.82
2024-01-05T04:11:00.169Z,4.35
2024-01-05T04:13:27.671Z,4.20
2024-01-05T04:15:55.738Z,4.15
2024-01-05T04:18:23.371Z,4.25
2024-01-05T04:20:51.039Z,3.75
2024-01-05T04:23:18.522Z,4.15
2024-01-05T04:25:46.765Z,3.40
2024-01-05T04:28:14.994Z,3.70
2024-01-05T04:30:42.611Z,4.10
2024-01-05T04:33:10.406Z,4.18
2024-01-05T04:35:37.989Z,3.63
2024-01-05T04:38:05.607Z,3.67
2024-01-05T04:40:33.080Z,3.50
2024-01-05T04:43:00.673Z,4.07
2024-01-05T04:45:28.710Z,3.90
2024-01-05T04:47:57.295Z,3.33
2024-01-05T04:50:24.941Z,3.67
2024-01-05T04:52:52.399Z,4.00
2024-01-05T04:55:20.735Z,4.15
2024-01-05T04:57:48.376Z,3.90
2024-01-05T05:00:16.306Z,3.22
2024-01-05T05:02:44.839Z,3.40
2024-01-05T05:05:12.869Z,3.13
2024-01-05T05:07:40.428Z,3.30
2024-01-05T05:10:09.390Z,4.30
2024-01-05T05:12:36.897Z,3.30
2024-01-05T05:15:04.920Z,3.10
2024-01-05T05:17:38.181Z,3.35
2024-01-05T05:20:06.508Z,3.80
2024-01-05T05:22:35.119Z,3.83
2024-01-05T05:25:04.425Z,4.93
2024-01-05T05:27:34.012Z,4.25
2024-01-05T05:30:06.062Z,3.50
2024-01-05T05:32:34.055Z,3.80
2024-01-05T05:35:02.038Z,3.35
2024-01-05T05:37:33.061Z,4.03
2024-01-05T05:40:00.884Z,3.45
2024-01-05T05:42:29.431Z,4.18
2024-01-05T05:44:57.159Z,5.28
2024-01-05T05:47:24.750Z,4.97
2024-01-05T05:49:52.287Z,5.30
2024-01-05T05:52:19.829Z,5.13
2024-01-05T05:54:47.640Z,4.53
2024-01-05T05:57:15.245Z,4.80
2024-01-05T05:59:43.078Z,4.13
2024-01-05T06:02:10.700Z,4.60
2024-01-05T06:04:38.583Z,4.93
2024-01-05T06:07:06.936Z,4.07
2024-01-05T06:09:34.905Z,4.20
2024-01-05T06:12:02.575Z,4.60
2024-01-05T06:14:30.262Z,4.03
2024-01-05T06:16:58.116Z,4.07
2024-01-05T06:19:25.725Z,4.20
2024-01-05T06:21:53.256Z,11.27
2024-01-05T06:24:20.854Z,4.15
2024-01-05T06:26:48.432Z,4.00
2024-01-05T06:29:15.954Z,3.45
2024-01-05T06:31:43.878Z,4.30
2024-01-05T06:34:11.789Z,3.28
2024-01-05T06:36:39.326Z,3.90
2024-01-05T06:39:07.902Z,4.03
2024-01-05T06:41:35.414Z,4.55
2024-01-05T06:44:03.836Z,4.63
2024-01-05T06:46:31.941Z,4.00
2024-01-05T06:48:59.908Z,4.53
2024-01-05T06:51:31.807Z,4.43
2024-01-05T06:54:00.369Z,5.10
2024-01-05T06:56:33.145Z,5.35
2024-01-05T06:59:05.732Z,5.68
2024-01-05T07:01:33.897Z,5.78
2024-01-05T07:04:01.662Z,5.95
2024-01-05T07:06:29.922Z,5.30
2024-01-05T07:09:05.344Z,5.93
2024-01-05T07:11:37.709Z,5.78
2024-01-05T07:14:05.323Z,6.25
2024-01-05T07:16:33.203Z,5.82
2024-01-05T07:19:01.263Z,6.95
2024-01-05T07:21:29.682Z,6.78
2024-01-05T07:23:58.199Z,18.05
2024-01-05T07:26:26.130Z,9.60
2024-01-05T07:28:55.060Z,11.93
2024-01-05T07:31:23.848Z,8.93
2024-01-05T07:33:59.701Z,7.20
2024-01-05T07:36:27.438Z,5.25
2024-01-05T07:39:00.722Z,4.40
2024-01-05T07:41:29.408Z,5.53
2024-01-05T07:43:57.327Z,4.53
2024-01-05T07:46:28.408Z,3.92
2024-01-05T07:48:56.933Z,4.15
2024-01-05T07:51:25.115Z,4.55
2024-01-05T07:53:53.299Z,4.80
2024-01-05T07:56:20.852Z,4.40
2024-01-05T07:58:48.402Z,4.70
2024-01-05T08:01:18.666Z,4.13
2024-01-05T08:03:47.279Z,4.95
2024-01-05T08:06:23.840Z,5.00
2024-01-05T08:08:52.142Z,5.28
2024-01-05T08:11:20.554Z,6.25
2024-01-05T08:13:48.132Z,5.85
2024-01-05T08:16:17.528Z,5.35
2024-01-05T08:18:45.309Z,5.07
2024-01-05T08:21:13.088Z,5.18
2024-01-05T08:23:40.595Z,5.25
2024-01-05T08:26:09.321Z,19.27
2024-01-05T08:28:36.776Z,7.47
2024-01-05T08:31:04.535Z,12.65
2024-01-05T08:33:32.296Z,4.95
2024-01-05T08:35:59.826Z,5.00
2024-01-05T08:38:27.608Z,5.82
2024-01-05T08:40:55.193Z,8.55
2024-01-05T08:43:22.781Z,5.05
2024-01-05T08:45:50.390Z,5.70
2024-01-05T08:48:24.381Z,6.03
2024-01-05T08:50:52.526Z,4.75
2024-01-05T08:53:21.418Z,6.30
2024-01-05T08:55:48.955Z,5.68
2024-01-05T08:58:16.519Z,5.63
2024-01-05T09:00:44.272Z,5.72
2024-01-05T09:03:17.304Z,4.82
2024-01-05T09:05:46.634Z,5.05
2024-01-05T09:08:15.151Z,5.07
2024-01-05T09:10:42.613Z,4.85
2024-01-05T09:13:10.340Z,4.45
2024-01-05T09:15:38.231Z,4.82
2024-01-05T09:18:07.059Z,4.18
2024-01-05T09:20:34.872Z,3.90
2024-01-05T09:23:02.406Z,4.78
2024-01-05T09:25:30.900Z,4.25
2024-01-05T09:28:08.214Z,4.30
2024-01-05T09:30:36.448Z,4.95
2024-01-05T09:33:05.358Z,4.25
2024-01-05T09:35:33.659Z,4.80
2024-01-05T09:38:21.138Z,3.78
2024-01-05T09:41:10.855Z,4.28
2024-01-05T09:44:01.572Z,4.25
2024-01-05T09:46:51.070Z,4.70
2024-01-05T09:49:42.149Z,4.13
2024-01-05T09:52:30.319Z,4.22
2024-01-05T09:55:18.003Z,5.00
2024-01-05T09:58:06.768Z,4.90
2024-01-05T10:00:56.528Z,5.70
2024-01-05T10:03:47.595Z,5.25
2024-01-05T10:06:35.478Z,4.45
2024-01-05T10:09:23.076Z,5.10
2024-01-05T10:12:14.430Z,4.65
2024-01-05T10:15:08.022Z,5.70
2024-01-05T10:17:55.857Z,4.50
2024-01-05T10:20:44.255Z,6.18
2024-01-05T10:23:31.936Z,5.22
2024-01-05T10:26:22.723Z,5.70
2024-01-05T10:29:16.761Z,5.47
2024-01-05T10:32:21.082Z,5.57
2024-01-05T10:35:09.737Z,5.32
2024-01-05T10:38:08.538Z,4.93
2024-01-05T10:41:06.811Z,5.20
2024-01-05T10:43:54.775Z,4.82
2024-01-05T10:46:43.982Z,5.32
2024-01-05T10:49:32.358Z,5.22
2024-01-05T10:52:21.976Z,4.65
2024-01-05T10:55:10.739Z,4.78
2024-01-05T10:57:58.395Z,4.25
2024-01-05T11:00:46.108Z,6.82
2024-01-05T11:03:40.774Z,4.50
2024-01-05T11:06:29.582Z,5.03
2024-01-05T11:09:50.184Z,4.13
2024-01-05T11:12:43.852Z,4.20
2024-01-05T11:15:49.536Z,4.57
2024-01-05T11:19:02.139Z,5.00
2024-01-05T11:22:00.937Z,5.22
2024-01-05T11:24:51.012Z,4.30
2024-01-05T11:27:40.295Z,4.60
2024-01-05T11:30:42.900Z,3.63
2024-01-05T11:33:47.758Z,4.40
2024-01-05T11:36:50.663Z,4.75
2024-01-05T11:39:47.494Z,3.78
2024-01-05T11:42:35.609Z,4.45
2024-01-05T11:45:45.082Z,4.10
2024-01-05T11:48:36.920Z,3.92
2024-01-05T11:51:27.175Z,4.75
2024-01-05T11:54:14.847Z,4.63
2024-01-05T11:57:05.350Z,4.50
2024-01-05T11:59:56.192Z,3.95
2024-01-05T12:02:43.793Z,5.53
2024-01-05T12:05:32.924Z,6.43
2024-01-05T12:08:20.690Z,8.45
2024-01-05T12:11:11.458Z,6.28
2024-01-05T12:13:59.339Z,6.25
2024-01-05T12:16:47.256Z,6.30
2024-01-05T12:19:35.039Z,6.03
2024-01-05T12:22:22.743Z,7.30
2024-01-05T12:25:13.536Z,5.95
2024-01-05T12:28:00.940Z,6.95
2024-01-05T12:30:51.769Z,7.68
2024-01-05T12:33:40.946Z,6.60
2024-01-05T12:39:24.593Z,6.57
2024-01-05T12:42:12.159Z,6.80
2024-01-05T12:44:59.545Z,6.18
2024-01-05T12:47:47.205Z,7.40
2024-01-05T12:50:34.928Z,6.80
2024-01-05T12:53:25.613Z,5.40
2024-01-05T12:56:19.041Z,4.80
2024-01-05T12:59:09.378Z,4.38
2024-01-05T13:02:05.005Z,4.65
2024-01-05T13:04:55.761Z,5.63
2024-01-05T13:07:44.060Z,5.95
2024-01-05T13:10:32.938Z,6.28
2024-01-05T13:13:20.355Z,5.03
2024-01-05T13:16:11.026Z,5.35
2024-01-05T13:18:58.629Z,5.55
2024-01-05T13:21:46.921Z,7.68
2024-01-05T13:24:35.114Z,9.75
2024-01-05T13:27:24.723Z,10.55
2024-01-05T13:30:17.254Z,8.50
2024-01-05T13:33:05.403Z,8.13
2024-01-05T13:35:53.723Z,7.15
2024-01-05T13:38:41.211Z,6.95
2024-01-05T13:41:28.796Z,7.88
2024-01-05T13:44:18.799Z,8.50
2024-01-05T13:47:07.151Z,8.93
2024-01-05T13:49:55.223Z,8.95
2024-01-05T13:52:43.369Z,10.43
2024-01-05T13:58:22.145Z,9.75
2024-01-05T14:01:09.945Z,10.65
2024-01-05T14:04:00.519Z,12.75
2024-01-05T14:06:48.132Z,14.10
2024-01-05T14:09:36.581Z,11.35
2024-01-05T14:12:24.729Z,11.50
2024-01-05T14:15:12.378Z,10.07
2024-01-05T14:17:59.856Z,11.68
2024-01-05T14:20:47.350Z,10.38
2024-01-05T14:23:37.579Z,13.20
2024-01-05T14:26:29.352Z,14.68
2024-01-05T14:29:18.744Z,15.80
2024-01-05T14:34:54.627Z,15.57
2024-01-05T14:37:42.137Z,12.07
2024-01-05T14:40:29.696Z,11.38
2024-01-05T14:43:17.588Z,10.65
2024-01-05T14:46:07.791Z,11.63
2024-01-05T14:48:55.517Z,10.95
2024-01-05T14:51:43.424Z,10.85
2024-01-05T14:54:32.136Z,13.35
2024-01-05T14:57:21.418Z,13.25
2024-01-05T15:00:09.585Z,15.00
2024-01-05T15:02:58.410Z,16.00
2024-01-05T15:05:45.991Z,14.77
2024-01-05T15:08:34.854Z,13.40
2024-01-05T15:11:22.334Z,12.43
2024-01-05T15:14:10.684Z,10.77
2024-01-05T15:16:58.090Z,10.93
2024-01-05T15:19:45.708Z,8.57
2024-01-05T15:22:33.985Z,9.02
2024-01-05T15:25:21.625Z,10.45
2024-01-05T15:28:14.357Z,10.55
2024-01-05T15:33:52.439Z,9.70
2024-01-05T15:36:41.941Z,8.55
2024-01-05T15:39:30.836Z,9.65
2024-01-05T15:42:21.465Z,9.45
2024-01-05T15:45:15.177Z,8.23
2024-01-05T15:48:03.019Z,8.52
2024-01-05T15:50:51.330Z,7.93
2024-01-05T15:53:39.075Z,7.72
2024-01-05T15:56:27.172Z,9.65
2024-01-05T15:59:14.795Z,10.50
2024-01-05T16:02:03.778Z,15.35
2024-01-05T16:04:51.722Z,12.65
2024-01-05T16:07:39.925Z,12.48
2024-01-05T16:10:28.340Z,11.15
2024-01-05T16:13:15.693Z,10.88
2024-01-05T16:16:12.326Z,9.75
2024-01-05T16:19:02.047Z,11.70
2024-01-05T16:21:49.572Z,9.02
2024-01-05T16:24:37.032Z,9.38
2024-01-05T16:27:24.726Z,9.10
2024-01-05T16:30:12.424Z,9.50
2024-01-05T16:32:59.909Z,9.63
2024-01-05T16:35:47.593Z,9.98
2024-01-05T16:38:35.787Z,9.55
2024-01-05T16:41:25.757Z,10.13
2024-01-05T16:44:13.616Z,11.73
2024-01-05T16:47:01.279Z,12.27
2024-01-05T16:49:48.781Z,9.73
2024-01-05T16:52:36.123Z,10.50
2024-01-05T16:55:23.613Z,10.52
2024-01-05T16:58:11.282Z,10.68
2024-01-05T17:00:59.063Z,10.70
2024-01-05T17:03:47.681Z,9.73
2024-01-05T17:06:38.550Z,10.52
2024-01-05T17:09:26.165Z,9.63
2024-01-05T17:12:13.459Z,9.63
2024-01-05T17:15:01.260Z,10.23
2024-01-05T17:17:48.817Z,12.05
2024-01-05T17:20:36.588Z,10.05
2024-01-05T17:23:24.712Z,10.30
2024-01-05T17:26:12.409Z,10.63
2024-01-05T17:29:05.091Z,11.90
2024-01-05T17:31:52.910Z,12.05
2024-01-05T17:34:41.158Z,12.98
2024-01-05T17:37:30.711Z,12.82
2024-01-05T17:40:18.362Z,12.50
2024-01-05T17:43:07.188Z,14.23
2024-01-05T17:45:54.641Z,14.68
2024-01-05T17:48:43.389Z,15.45
2024-01-05T17:51:39.871Z,15.40
2024-01-05T17:54:27.851Z,12.32
2024-01-05T17:57:15.761Z,12.15
2024-01-05T17:59:43.534Z,12.82
2024-01-05T18:02:11.107Z,12.10
2024-01-05T18:04:47.411Z,74.13
2024-01-05T18:07:18.276Z,61.40
2024-01-05T18:09:46.354Z,13.73
2024-01-05T18:12:15.543Z,13.07
2024-01-05T18:14:43.489Z,12.82
2024-01-05T18:17:11.394Z,12.88
2024-01-05T18:19:39.844Z,13.10
2024-01-05T18:22:07.624Z,12.23
2024-01-05T18:24:35.508Z,12.05
2024-01-05T18:27:07.438Z,12.40
2024-01-05T18:29:36.028Z,12.15
2024-01-05T18:32:04.677Z,13.45
2024-01-05T18:34:33.198Z,14.82
2024-01-05T18:37:01.373Z,12.60
2024-01-05T18:39:29.767Z,12.45
2024-01-05T18:42:02.188Z,10.07
2024-01-05T18:44:30.109Z,11.05
2024-01-05T18:46:58.537Z,16.35
2024-01-05T18:49:27.175Z,23.00
2024-01-05T18:51:57.551Z,19.17
2024-01-05T18:54:25.594Z,16.38
2024-01-05T18:56:53.471Z,15.13
2024-01-05T18:59:20.952Z,11.65
2024-01-05T19:01:48.927Z,11.35
2024-01-05T19:04:16.665Z,11.68
2024-01-05T19:06:45.124Z,11.32
2024-01-05T19:09:12.894Z,11.65
2024-01-05T19:11:42.443Z,11.38
2024-01-05T19:16:46.375Z,12.40
2024-01-05T19:19:16.162Z,12.50
2024-01-05T19:21:55.457Z,12.27
2024-01-05T19:24:30.853Z,12.10
2024-01-05T19:26:59.986Z,11.85
2024-01-05T19:29:28.082Z,12.90
2024-01-05T19:31:55.850Z,13.55
2024-01-05T19:34:23.813Z,13.05
2024-01-05T19:36:52.676Z,16.70
2024-01-05T19:39:20.666Z,18.52
2024-01-05T19:41:51.736Z,18.23
2024-01-05T19:44:21.434Z,14.27
2024-01-05T19:46:52.976Z,20.40
2024-01-05T19:49:21.337Z,21.33
2024-01-05T19:51:49.844Z,20.38
2024-01-05T19:54:19.821Z,111.47
2024-01-05T19:56:49.873Z,29.80
2024-01-05T19:59:20.707Z,21.38
2024-01-05T20:01:48.859Z,17.90
2024-01-05T20:04:17.970Z,20.70
2024-01-05T20:09:19.817Z,17.83
2024-01-05T20:11:48.106Z,16.70
2024-01-05T20:14:17.132Z,18.17
2024-01-05T20:19:34.844Z,15.43
2024-01-05T20:22:03.370Z,16.90
2024-01-05T20:24:31.159Z,19.50
2024-01-05T20:26:59.357Z,17.85
2024-01-05T20:29:27.894Z,16.65
2024-01-05T20:31:55.973Z,16.60
2024-01-05T20:34:24.278Z,15.32
2024-01-05T20:36:54.174Z,14.05
2024-01-05T20:39:22.326Z,12.98
2024-01-05T20:41:51.047Z,14.25
2024-01-05T20:44:20.205Z,13.98
2024-01-05T20:46:49.166Z,13.35
2024-01-05T20:49:19.693Z,14.40
2024-01-05T20:51:47.645Z,14.15
2024-01-05T20:54:17.988Z,13.07
2024-01-05T20:56:45.836Z,12.57
2024-01-05T20:59:13.388Z,11.60
2024-01-05T21:01:44.320Z,14.20
2024-01-05T21:04:15.433Z,13.50
2024-01-05T21:06:47.548Z,12.77
2024-01-05T21:09:16.172Z,14.70
2024-01-05T21:11:43.839Z,14.35
2024-01-05T21:14:12.001Z,13.60
2024-01-05T21:16:42.791Z,16.50
2024-01-05T21:19:10.805Z,15.75
2024-01-05T21:21:44.058Z,21.75
2024-01-05T21:24:12.121Z,25.63
2024-01-05T21:26:43.543Z,28.73
2024-01-05T21:29:11.278Z,24.38
2024-01-05T21:31:44.457Z,23.52
2024-01-05T21:34:12.037Z,21.67
2024-01-05T21:36:41.726Z,19.45
2024-01-05T21:39:11.442Z,20.33
2024-01-05T21:41:40.745Z,19.08
2024-01-05T21:44:08.292Z,15.73
2024-01-05T21:46:38.861Z,14.43
2024-01-05T21:49:06.660Z,14.85
2024-01-05T21:51:34.151Z,13.18
2024-01-05T21:54:01.603Z,12.30
2024-01-05T21:56:29.611Z,12.00
2024-01-05T21:58:57.952Z,11.77
2024-01-05T22:01:25.560Z,11.88
2024-01-05T22:03:53.290Z,11.48
2024-01-05T22:06:21.352Z,10.82
2024-01-05T22:08:50.504Z,10.45
2024-01-05T22:11:18.224Z,10.77
2024-01-05T22:13:45.747Z,9.35
2024-01-05T22:16:18.221Z,10.10
2024-01-05T22:18:46.859Z,9.15
2024-01-05T22:21:15.288Z,7.85
2024-01-05T22:23:43.394Z,8.93
2024-01-05T22:26:21.823Z,7.75
2024-01-05T22:28:50.225Z,8.65
2024-01-05T22:31:18.310Z,8.32
2024-01-05T22:33:48.060Z,7.88
2024-01-05T22:36:16.125Z,10.13
2024-01-05T22:38:43.854Z,9.98
2024-01-05T22:41:13.102Z,9.77
2024-01-05T22:43:41.671Z,9.70
2024-01-05T22:46:11.404Z,10.80
2024-01-05T22:48:40.211Z,10.57
2024-01-05T22:51:09.674Z,9.68
2024-01-05T22:53:38.465Z,9.35
2024-01-05T22:56:11.665Z,8.48
2024-01-05T22:58:39.936Z,8.82
2024-01-05T23:01:07.753Z,9.32
2024-01-05T23:03:35.439Z,8.93
2024-01-05T23:06:03.146Z,8.68
2024-01-05T23:08:31.267Z,8.30
2024-01-05T23:10:59.275Z,8.73
2024-01-05T23:13:26.724Z,9.32
2024-01-05T23:15:56.651Z,7.93
2024-01-05T23:18:27.412Z,9.27
2024-01-05T23:20:55.468Z,9.80
2024-01-05T23:23:23.025Z,11.45
2024-01-05T23:25:50.714Z,12.13
2024-01-05T23:28:18.595Z,15.10
2024-01-05T23:30:47.906Z,15.90
2024-01-05T23:33:15.833Z,14.35
2024-01-05T23:35:43.410Z,15.00
2024-01-05T23:38:11.106Z,12.75
2024-01-05T23:40:38.551Z,13.15
2024-01-05T23:43:05.983Z,14.35
2024-01-05T23:45:33.992Z,17.70
2024-01-05T23:48:01.953Z,14.13
2024-01-05T23:50:29.652Z,18.20
2024-01-05T23:52:57.330Z,19.58
2024-01-05T23:55:25.045Z,18.23
2024-01-05T23:57:52.613Z,13.65
